Merrill, Maine
Current Conditions -  °F | °C
As of 9:59 AM on Monday 24 Nov 2014 (Local Time) from KHUL Reporting Station
Light Rain Light Rain  
Wind Chill: 40°   Ceiling: 1200
Heat Index: 46°   Visibility: 4mi
Dew Point: 42°   Wind: 13mph
Humidity: 86%   Direction: 150°SSE
Pressure: 29.93"   Gusts: 21mph
Location:  46.2367°N, 68.3001°W
Report Text: KHUL 241459Z AUTO 15011G18KT 4SM -RA BR BKN012 BKN055 OVC070 08/06 A2993 RMK AO2 P0000 T00780056
Loading
Personal Weather Stations






























Interactive Weather Map New forecast layout! Learn more

10-Day Weather Forecast

Advertisements
Track Severe Weather on mobile